Time;durP1;ratioP1;P1;durP2;ratioP2;P2;SDS_P1;SDS_P2;PMS_P1;PMS_P2;Temp;Humidity;BMP_temperature;BMP_pressure;BME280_temperature;BME280_humidity;BME280_pressure;Samples;Min_cycle;Max_cycle;Signal;HPM_P1;HPM_P2
2023/10/15 00:02:14;;;;;;;3.47;3.20;;;22.60;73.60;;;;;;5059214;28;20091;-39
2023/10/15 00:04:40;;;;;;;3.35;3.05;;;22.60;73.40;;;;;;5063367;28;20032;-40
2023/10/15 00:07:07;;;;;;;3.60;3.30;;;22.60;73.40;;;;;;5061214;28;20037;-39
2023/10/15 00:09:33;;;;;;;3.25;3.05;;;22.60;73.20;;;;;;5059586;28;20040;-39
2023/10/15 00:12:00;;;;;;;3.33;3.13;;;22.60;73.30;;;;;;5059163;28;20029;-40
2023/10/15 00:14:26;;;;;;;3.90;3.60;;;22.60;73.20;;;;;;5059941;28;20325;-39
2023/10/15 00:16:52;;;;;;;3.50;3.20;;;22.60;73.10;;;;;;5060215;28;20039;-39
2023/10/15 00:19:18;;;;;;;3.53;3.22;;;22.60;73.20;;;;;;5063219;28;20078;-39
2023/10/15 00:21:44;;;;;;;3.60;3.30;;;22.60;73.20;;;;;;5063399;28;20040;-39
2023/10/15 00:24:10;;;;;;;3.42;3.13;;;22.60;73.20;;;;;;5063290;28;20033;-39
2023/10/15 00:26:38;;;;;;;3.28;2.97;;;22.50;73.10;;;;;;5063593;28;20105;-39
2023/10/15 00:29:08;;;;;;;3.50;3.20;;;22.50;73.10;;;;;;5062689;28;20509;-39
2023/10/15 00:31:34;;;;;;;3.10;2.83;;;22.50;73.80;;;;;;5063184;28;20060;-39
2023/10/15 00:34:01;;;;;;;3.23;3.03;;;22.50;72.90;;;;;;5070115;28;20098;-39
2023/10/15 00:36:27;;;;;;;3.08;2.58;;;22.50;72.50;;;;;;5103020;28;20280;-39
2023/10/15 00:38:53;;;;;;;4.70;2.90;;;22.50;72.50;;;;;;5104206;28;20024;-39
2023/10/15 00:41:20;;;;;;;3.10;2.80;;;22.50;72.40;;;;;;5103506;28;20048;-39
2023/10/15 00:43:54;;;;;;;3.08;2.80;;;22.40;72.40;;;;;;5104309;28;20032;-40
2023/10/15 00:46:26;;;;;;;4.45;3.40;;;22.40;72.40;;;;;;5103603;28;20024;-39
2023/10/15 00:48:56;;;;;;;3.05;2.85;;;22.40;72.30;;;;;;5103709;28;20049;-39
2023/10/15 00:51:22;;;;;;;2.78;2.55;;;22.40;72.30;;;;;;5104103;28;20071;-39
2023/10/15 00:53:58;;;;;;;2.55;2.35;;;22.40;72.30;;;;;;5096390;28;20102;-39
2023/10/15 00:56:27;;;;;;;2.60;2.40;;;22.40;72.40;;;;;;5087080;28;20036;-39
2023/10/15 01:01:21;;;;;;;2.65;2.45;;;22.30;72.10;;;;;;5096451;28;20086;-39
2023/10/15 01:03:53;;;;;;;2.92;2.70;;;22.30;72.20;;;;;;5098001;28;20621;-39
2023/10/15 01:06:46;;;;;;;3.00;2.38;;;22.30;72.10;;;;;;5108825;28;20054;-39
2023/10/15 01:09:27;;;;;;;2.80;2.60;;;22.30;72.10;;;;;;5094802;28;20035;-39
2023/10/15 01:11:57;;;;;;;2.60;2.40;;;22.30;72.10;;;;;;5093637;28;20036;-39
2023/10/15 01:14:35;;;;;;;2.45;2.25;;;22.30;72.20;;;;;;5093955;28;20020;-40
2023/10/15 01:17:01;;;;;;;2.60;2.40;;;22.30;72.10;;;;;;5101121;28;20035;-39
2023/10/15 01:19:32;;;;;;;2.63;2.40;;;22.20;72.00;;;;;;5094805;28;20024;-39
2023/10/15 01:22:02;;;;;;;2.92;2.30;;;22.20;72.10;;;;;;5092884;28;20028;-39
2023/10/15 01:24:32;;;;;;;3.05;2.75;;;22.20;72.20;;;;;;5097502;28;20039;-39
2023/10/15 01:27:12;;;;;;;2.50;2.30;;;22.20;72.20;;;;;;5095979;28;20070;-39
2023/10/15 01:29:44;;;;;;;2.60;2.40;;;22.20;72.20;;;;;;5086294;28;20024;-39
2023/10/15 01:32:11;;;;;;;2.90;2.60;;;22.20;72.10;;;;;;5094775;28;20040;-39
2023/10/15 01:34:48;;;;;;;2.45;2.25;;;22.20;72.10;;;;;;5105185;28;20027;-39
2023/10/15 01:37:15;;;;;;;3.17;2.30;;;22.10;72.00;;;;;;5086142;28;20086;-40
2023/10/15 01:39:48;;;;;;;3.15;2.10;;;22.10;72.00;;;;;;5103778;28;20028;-40
2023/10/15 01:45:17;;;;;;;2.60;2.40;;;22.10;72.10;;;;;;5101885;28;20032;-40
2023/10/15 01:47:57;;;;;;;3.50;2.08;;;22.10;72.10;;;;;;5091092;28;20046;-40
2023/10/15 01:50:44;;;;;;;2.35;1.65;;;22.00;72.20;;;;;;5095182;28;20028;-40
2023/10/15 01:53:11;;;;;;;2.05;1.85;;;22.00;72.10;;;;;;5100895;28;20032;-40
2023/10/15 01:55:45;;;;;;;2.10;1.90;;;22.00;72.20;;;;;;5097711;28;20103;-41
2023/10/15 01:58:12;;;;;;;2.05;1.88;;;22.00;72.20;;;;;;5100396;28;20040;-40
2023/10/15 02:03:07;;;;;;;3.05;1.90;;;22.00;72.20;;;;;;5099508;28;20036;-40
2023/10/15 02:05:45;;;;;;;1.80;1.70;;;22.00;72.20;;;;;;5101993;28;20476;-39
2023/10/15 02:08:24;;;;;;;2.05;1.85;;;22.00;72.30;;;;;;5094886;28;20044;-39
2023/10/15 02:10:51;;;;;;;2.30;1.90;;;21.90;72.10;;;;;;5095785;28;20080;-40
2023/10/15 02:13:19;;;;;;;2.35;2.15;;;21.90;72.20;;;;;;5101986;28;20035;-41
2023/10/15 02:15:55;;;;;;;2.65;1.95;;;21.90;72.20;;;;;;5103025;28;20028;-40
2023/10/15 02:18:21;;;;;;;1.90;1.80;;;21.90;72.30;;;;;;5099420;28;20032;-40
2023/10/15 02:23:20;;;;;;;2.83;1.77;;;21.80;72.20;;;;;;5100325;28;20028;-40
2023/10/15 02:25:47;;;;;;;3.60;1.85;;;21.80;72.20;;;;;;5103191;28;20022;-40
2023/10/15 02:28:17;;;;;;;2.47;1.65;;;21.80;72.30;;;;;;5092116;28;20062;-40
2023/10/15 02:30:46;;;;;;;1.98;1.80;;;21.80;72.20;;;;;;5097903;28;20384;-39
2023/10/15 02:33:17;;;;;;;2.60;1.58;;;21.80;72.30;;;;;;5100965;28;20182;-39
2023/10/15 02:35:46;;;;;;;1.88;1.65;;;21.80;72.00;;;;;;5107801;28;20091;-39
2023/10/15 02:38:13;;;;;;;1.85;1.75;;;21.80;72.20;;;;;;5094853;28;20032;-39
2023/10/15 02:41:03;;;;;;;2.05;1.85;;;21.70;72.20;;;;;;5101280;28;20035;-40
2023/10/15 02:43:30;;;;;;;2.30;1.88;;;21.70;72.20;;;;;;5091804;28;20040;-40
2023/10/15 02:46:00;;;;;;;2.42;1.50;;;21.70;72.20;;;;;;5099200;28;20084;-39
2023/10/15 02:48:27;;;;;;;1.77;1.40;;;21.70;72.20;;;;;;5094358;28;20040;-39
2023/10/15 02:51:00;;;;;;;1.75;1.65;;;21.70;72.10;;;;;;5095096;28;20036;-40
2023/10/15 02:53:37;;;;;;;1.92;1.70;;;21.70;72.20;;;;;;5094707;28;20565;-40
2023/10/15 02:56:10;;;;;;;1.50;1.40;;;21.60;72.10;;;;;;5101545;28;20028;-39
2023/10/15 02:58:37;;;;;;;1.52;1.40;;;21.60;72.10;;;;;;5095825;28;20036;-40
2023/10/15 03:01:12;;;;;;;1.50;1.30;;;21.60;72.10;;;;;;5094119;28;20047;-40
2023/10/15 03:03:48;;;;;;;1.60;1.50;;;21.60;72.20;;;;;;5100824;28;20102;-40
2023/10/15 03:06:18;;;;;;;1.52;1.23;;;21.60;72.10;;;;;;5090986;28;20094;-40
2023/10/15 03:08:46;;;;;;;2.00;1.38;;;21.60;72.00;;;;;;5084551;28;20032;-39
2023/10/15 03:11:12;;;;;;;1.98;1.35;;;21.50;72.10;;;;;;5084204;28;20091;-39
2023/10/15 03:13:53;;;;;;;1.27;1.17;;;21.50;72.00;;;;;;5083460;28;20036;-39
2023/10/15 03:16:26;;;;;;;1.40;1.30;;;21.50;72.10;;;;;;5094283;28;20027;-39
2023/10/15 03:18:56;;;;;;;1.98;1.30;;;21.50;72.10;;;;;;5086786;28;20036;-39
2023/10/15 03:21:25;;;;;;;2.92;1.52;;;21.50;72.10;;;;;;5099044;28;20107;-39
2023/10/15 03:23:55;;;;;;;1.58;1.48;;;21.50;72.20;;;;;;5090589;28;20024;-39
2023/10/15 03:26:30;;;;;;;2.97;1.40;;;21.50;72.10;;;;;;5092895;28;20025;-40
2023/10/15 03:28:58;;;;;;;1.70;1.42;;;21.50;72.10;;;;;;5090996;28;20058;-40
2023/10/15 03:31:27;;;;;;;1.42;1.33;;;21.50;72.10;;;;;;5090652;28;20099;-40
2023/10/15 03:34:14;;;;;;;1.40;1.30;;;21.40;72.10;;;;;;5091851;28;20024;-39
2023/10/15 03:36:58;;;;;;;1.45;1.17;;;21.40;72.20;;;;;;5088082;28;20026;-40
2023/10/15 03:39:54;;;;;;;1.35;1.25;;;21.40;72.20;;;;;;5091435;28;20029;-40
2023/10/15 03:42:17;;;;;;;1.20;1.10;;;21.40;72.00;;;;;;5098039;28;20040;-40
2023/10/15 03:44:49;;;;;;;1.48;1.38;;;21.40;72.10;;;;;;5098577;28;20103;-40
2023/10/15 03:47:16;;;;;;;1.30;1.20;;;21.40;72.30;;;;;;5092822;28;20028;-40
2023/10/15 03:49:46;;;;;;;;;;;21.30;72.00;;;;;;5095815;28;20124;-40
2023/10/15 03:52:20;;;;;;;1.20;1.10;;;21.30;72.10;;;;;;5097388;28;19919;-39
2023/10/15 03:54:49;;;;;;;1.15;1.02;;;21.30;72.00;;;;;;5096962;28;20032;-40
2023/10/15 03:57:23;;;;;;;2.95;1.08;;;21.30;72.10;;;;;;5095623;28;20642;-40
2023/10/15 03:59:55;;;;;;;1.23;1.10;;;21.30;72.20;;;;;;5092818;28;20024;-39
2023/10/15 04:02:39;;;;;;;3.17;1.05;;;21.30;72.00;;;;;;5096736;28;20054;-40
2023/10/15 04:05:10;;;;;;;3.92;1.17;;;21.30;71.90;;;;;;5097182;28;20024;-40
2023/10/15 04:07:39;;;;;;;2.50;1.35;;;21.20;72.00;;;;;;5101432;28;20035;-40
2023/10/15 04:10:09;;;;;;;1.25;1.00;;;21.20;71.90;;;;;;5096465;28;20074;-40
2023/10/15 04:12:35;;;;;;;5.07;1.00;;;21.20;72.00;;;;;;5102027;28;20043;-40
2023/10/15 04:15:12;;;;;;;1.57;1.30;;;21.20;71.90;;;;;;5099270;28;20035;-40
2023/10/15 04:17:38;;;;;;;1.00;0.90;;;21.20;72.00;;;;;;5094143;28;20277;-39
2023/10/15 04:20:05;;;;;;;2.03;0.90;;;21.20;72.10;;;;;;5098551;28;20100;-40
2023/10/15 04:22:44;;;;;;;1.17;0.93;;;21.20;72.00;;;;;;5099833;28;20031;-40
2023/10/15 04:25:26;;;;;;;2.13;1.20;;;21.10;72.00;;;;;;5103235;28;20028;-39
2023/10/15 04:27:53;;;;;;;2.65;1.10;;;21.10;72.00;;;;;;5091272;28;20050;-40
2023/10/15 04:30:20;;;;;;;1.30;0.98;;;21.10;72.00;;;;;;5101626;28;20489;-40
2023/10/15 04:32:47;;;;;;;1.88;1.05;;;21.10;72.00;;;;;;5095451;28;20059;-39
2023/10/15 04:35:17;;;;;;;1.63;0.95;;;21.10;72.00;;;;;;5103346;28;20051;-40
2023/10/15 04:37:45;;;;;;;2.05;0.98;;;21.10;72.10;;;;;;5097037;28;20063;-39
2023/10/15 04:40:12;;;;;;;1.73;1.20;;;21.10;72.10;;;;;;5102602;28;20169;-39
2023/10/15 04:42:51;;;;;;;1.55;1.10;;;21.00;72.00;;;;;;5098044;28;20045;-39
2023/10/15 04:45:23;;;;;;;1.30;1.10;;;21.00;72.00;;;;;;5101857;28;20027;-39
2023/10/15 04:47:59;;;;;;;2.85;0.80;;;21.00;71.90;;;;;;5097030;28;20039;-39
2023/10/15 04:50:35;;;;;;;1.00;0.90;;;21.00;71.90;;;;;;5100628;28;20036;-39
2023/10/15 04:53:17;;;;;;;1.42;0.95;;;21.00;72.00;;;;;;5102652;28;20054;-40
2023/10/15 04:55:43;;;;;;;1.35;1.00;;;21.00;71.90;;;;;;5104570;28;20424;-40
2023/10/15 04:58:10;;;;;;;1.13;0.80;;;21.00;71.90;;;;;;5099532;28;20112;-40
2023/10/15 05:00:47;;;;;;;1.05;0.82;;;21.00;71.90;;;;;;5103970;28;20095;-44
2023/10/15 05:03:17;;;;;;;0.82;0.65;;;21.00;71.90;;;;;;5102186;28;20043;-40
2023/10/15 05:05:43;;;;;;;1.08;0.75;;;20.90;71.80;;;;;;5109689;28;20024;-40
2023/10/15 05:08:13;;;;;;;2.25;0.80;;;20.90;71.90;;;;;;5102490;28;20028;-40
2023/10/15 05:10:50;;;;;;;1.55;0.90;;;20.90;71.90;;;;;;5103965;28;20048;-40
2023/10/15 05:13:17;;;;;;;0.88;0.88;;;20.90;71.80;;;;;;5100740;28;20046;-40
2023/10/15 05:15:47;;;;;;;1.50;0.80;;;20.90;71.90;;;;;;5092116;28;20024;-40
2023/10/15 05:18:15;;;;;;;3.42;0.85;;;20.90;71.80;;;;;;5093771;28;20039;-40
2023/10/15 05:20:42;;;;;;;0.75;0.70;;;20.90;71.90;;;;;;5103083;28;20036;-40
2023/10/15 05:23:09;;;;;;;1.55;0.82;;;20.80;71.70;;;;;;5088675;28;20068;-39
2023/10/15 05:25:39;;;;;;;1.35;0.70;;;20.80;71.70;;;;;;5098180;28;20028;-39
2023/10/15 05:28:06;;;;;;;1.27;0.95;;;20.80;71.60;;;;;;5087357;28;20036;-39
2023/10/15 05:30:32;;;;;;;3.22;0.80;;;20.80;71.80;;;;;;5102066;28;20031;-39
2023/10/15 05:33:01;;;;;;;0.70;0.70;;;20.80;71.60;;;;;;5102070;28;20036;-39
2023/10/15 05:35:28;;;;;;;3.47;0.80;;;20.80;71.60;;;;;;5099884;28;20035;-39
2023/10/15 05:37:57;;;;;;;0.80;0.63;;;20.80;71.60;;;;;;5094677;28;20028;-39
2023/10/15 05:40:23;;;;;;;0.73;0.73;;;20.80;71.70;;;;;;5095668;28;20059;-39
2023/10/15 05:42:49;;;;;;;0.77;0.55;;;20.80;71.60;;;;;;5102996;28;20032;-39
2023/10/15 05:45:16;;;;;;;0.70;0.60;;;20.70;71.60;;;;;;5095169;28;20027;-39
2023/10/15 05:47:42;;;;;;;1.23;0.80;;;20.70;71.60;;;;;;5097487;28;20029;-40
2023/10/15 05:50:09;;;;;;;0.82;0.60;;;20.70;72.40;;;;;;5094112;28;20280;-40
2023/10/15 05:52:35;;;;;;;0.60;0.55;;;20.70;71.60;;;;;;5095552;28;20035;-40
2023/10/15 05:55:02;;;;;;;0.70;0.60;;;20.70;71.60;;;;;;5099770;28;20028;-40
2023/10/15 05:57:28;;;;;;;0.80;0.80;;;20.70;71.60;;;;;;5102934;28;20024;-40
2023/10/15 05:59:57;;;;;;;1.65;0.77;;;20.70;71.60;;;;;;5095222;28;20088;-40
2023/10/15 06:02:23;;;;;;;0.90;0.63;;;20.60;71.50;;;;;;5099757;28;20059;-40
2023/10/15 06:04:49;;;;;;;0.70;0.70;;;20.60;71.50;;;;;;5090402;28;20040;-40
2023/10/15 06:07:16;;;;;;;1.27;0.60;;;20.60;71.50;;;;;;5088203;28;20070;-40
2023/10/15 06:09:45;;;;;;;1.35;0.60;;;20.60;71.50;;;;;;5100485;28;20036;-40
2023/10/15 06:12:13;;;;;;;1.13;0.70;;;20.60;71.50;;;;;;5093092;28;20049;-40
2023/10/15 06:14:39;;;;;;;0.75;0.60;;;20.60;71.50;;;;;;5096620;28;20769;-39
2023/10/15 06:17:05;;;;;;;0.40;0.40;;;20.60;71.50;;;;;;5101845;28;20028;-39
2023/10/15 06:19:31;;;;;;;0.53;0.53;;;20.60;71.60;;;;;;5096597;28;20191;-39
2023/10/15 06:21:58;;;;;;;0.50;0.50;;;20.60;71.60;;;;;;5100692;28;20291;-40
2023/10/15 06:24:24;;;;;;;0.95;0.60;;;20.50;71.60;;;;;;5099567;28;20492;-39
2023/10/15 06:26:50;;;;;;;0.87;0.60;;;20.50;71.40;;;;;;5101317;28;20033;-39
2023/10/15 06:29:16;;;;;;;0.57;0.57;;;20.50;71.50;;;;;;5099543;28;20284;-40
2023/10/15 06:31:43;;;;;;;0.70;0.43;;;20.50;71.40;;;;;;5095305;28;20491;-41
2023/10/15 06:34:09;;;;;;;0.70;0.50;;;20.50;71.50;;;;;;5101008;28;20035;-40
2023/10/15 06:36:35;;;;;;;0.82;0.50;;;20.50;71.60;;;;;;5096660;28;20162;-39
2023/10/15 06:39:01;;;;;;;0.63;0.38;;;20.60;71.80;;;;;;5087244;28;20036;-40
2023/10/15 06:41:27;;;;;;;0.82;0.50;;;20.60;71.70;;;;;;5102499;28;20040;-40
2023/10/15 06:43:54;;;;;;;0.32;0.30;;;20.60;71.70;;;;;;5103119;28;20027;-39
2023/10/15 06:46:23;;;;;;;0.85;0.40;;;20.60;71.60;;;;;;5095037;28;20038;-39
2023/10/15 06:48:51;;;;;;;0.60;0.47;;;20.60;71.60;;;;;;5093635;28;20046;-39
2023/10/15 06:51:17;;;;;;;0.50;0.47;;;20.50;71.70;;;;;;5101344;28;20295;-39
2023/10/15 06:53:44;;;;;;;0.32;0.32;;;20.60;71.70;;;;;;5102282;28;20048;-38
2023/10/15 06:56:10;;;;;;;0.70;0.47;;;20.50;71.70;;;;;;5101581;28;20096;-39
2023/10/15 06:58:36;;;;;;;0.68;0.47;;;20.50;71.70;;;;;;5097826;28;20074;-40
2023/10/15 07:01:02;;;;;;;0.40;0.40;;;20.50;71.60;;;;;;5101347;28;20028;-40
2023/10/15 07:03:30;;;;;;;0.40;0.30;;;20.50;71.80;;;;;;5095957;28;20036;-39
2023/10/15 07:05:56;;;;;;;1.40;0.40;;;20.60;71.90;;;;;;5101576;28;20038;-39
2023/10/15 07:08:22;;;;;;;0.60;0.40;;;20.60;71.90;;;;;;5090113;28;20032;-39
2023/10/15 07:10:49;;;;;;;0.38;0.30;;;20.60;71.80;;;;;;5097754;28;20123;-39
2023/10/15 07:13:17;;;;;;;0.33;0.30;;;20.60;71.70;;;;;;5100191;28;20024;-39
2023/10/15 07:15:45;;;;;;;0.35;0.35;;;20.60;72.00;;;;;;5102027;28;20035;-40
2023/10/15 07:18:12;;;;;;;0.30;0.30;;;20.50;71.80;;;;;;5099346;28;20071;-39
2023/10/15 07:20:39;;;;;;;0.55;0.40;;;20.50;71.80;;;;;;5093575;28;20055;-39
2023/10/15 07:23:05;;;;;;;1.20;0.40;;;20.50;71.80;;;;;;5096048;28;20040;-39
2023/10/15 07:25:34;;;;;;;0.98;0.40;;;20.50;71.80;;;;;;5091469;28;20084;-38
2023/10/15 07:28:00;;;;;;;0.30;0.30;;;20.50;71.80;;;;;;5090442;28;20031;-39
2023/10/15 07:30:27;;;;;;;0.30;0.30;;;20.50;71.80;;;;;;5094638;28;20024;-39
2023/10/15 07:32:59;;;;;;;0.40;0.40;;;20.50;72.00;;;;;;5093318;28;20096;-39
2023/10/15 07:35:29;;;;;;;0.30;0.30;;;20.60;72.00;;;;;;5104023;28;20056;-38
2023/10/15 07:37:56;;;;;;;0.20;0.20;;;20.60;71.90;;;;;;5097415;28;20035;-39
2023/10/15 07:40:25;;;;;;;0.20;0.20;;;20.60;71.80;;;;;;5100723;28;20028;-40
2023/10/15 07:42:52;;;;;;;0.32;0.30;;;20.50;71.80;;;;;;5101604;28;20436;-39
2023/10/15 07:45:19;;;;;;;0.20;0.20;;;20.50;71.80;;;;;;5098820;28;20028;-39
2023/10/15 07:47:46;;;;;;;0.30;0.30;;;20.50;71.80;;;;;;5093364;28;20028;-39
2023/10/15 07:50:16;;;;;;;0.35;0.30;;;20.50;71.80;;;;;;5093992;28;20143;-39
2023/10/15 07:52:43;;;;;;;0.50;0.30;;;20.50;71.80;;;;;;5098354;28;20115;-39
2023/10/15 07:55:12;;;;;;;0.28;0.20;;;20.50;71.90;;;;;;5093157;28;20024;-40
2023/10/15 07:57:38;;;;;;;0.43;0.40;;;20.50;72.00;;;;;;5087023;28;20032;-39
2023/10/15 08:00:09;;;;;;;0.20;0.20;;;20.60;72.10;;;;;;5100444;28;20089;-40
2023/10/15 08:02:35;;;;;;;0.20;0.20;;;20.60;71.90;;;;;;5095405;28;20016;-39
2023/10/15 08:05:01;;;;;;;0.15;0.15;;;20.60;71.80;;;;;;5098404;28;20047;-39
2023/10/15 08:07:28;;;;;;;0.20;0.20;;;20.60;71.80;;;;;;5093492;28;20036;-39
2023/10/15 08:09:54;;;;;;;0.37;0.20;;;20.60;71.70;;;;;;5088711;28;20031;-40
2023/10/15 08:12:20;;;;;;;1.95;0.30;;;20.50;71.60;;;;;;5086867;28;20297;-39
2023/10/15 08:14:47;;;;;;;0.20;0.20;;;20.50;71.70;;;;;;5086668;28;20111;-39
2023/10/15 08:17:15;;;;;;;0.40;0.30;;;20.50;72.60;;;;;;5087229;28;20028;-40
2023/10/15 08:19:42;;;;;;;0.45;0.20;;;20.50;71.70;;;;;;5100465;28;20341;-40
2023/10/15 08:22:08;;;;;;;0.40;0.20;;;20.50;71.70;;;;;;5095602;28;20028;-39
2023/10/15 08:24:38;;;;;;;0.30;0.30;;;20.50;71.60;;;;;;5101576;28;20081;-39
2023/10/15 08:27:06;;;;;;;0.77;0.20;;;20.50;71.90;;;;;;5092407;28;20032;-39
2023/10/15 08:29:32;;;;;;;0.15;0.15;;;20.60;72.00;;;;;;5100839;28;20056;-39
2023/10/15 08:31:58;;;;;;;0.20;0.20;;;20.60;71.90;;;;;;5094335;28;20040;-39
2023/10/15 08:34:24;;;;;;;0.20;0.20;;;20.60;71.70;;;;;;5093763;28;20035;-39
2023/10/15 08:36:50;;;;;;;0.20;0.20;;;20.60;71.60;;;;;;5093523;28;20028;-39
2023/10/15 08:39:16;;;;;;;0.30;0.22;;;20.60;71.60;;;;;;5093524;28;20054;-39
2023/10/15 08:41:44;;;;;;;0.32;0.28;;;20.60;71.50;;;;;;5092500;28;20050;-39
2023/10/15 08:44:18;;;;;;;0.95;0.25;;;20.50;71.50;;;;;;5103974;28;20032;-39
2023/10/15 08:46:45;;;;;;;0.30;0.30;;;20.60;71.50;;;;;;5103911;28;20027;-40
2023/10/15 08:49:14;;;;;;;0.30;0.30;;;20.50;71.50;;;;;;5095638;28;20035;-39
2023/10/15 08:51:41;;;;;;;0.20;0.20;;;20.50;72.20;;;;;;5096737;28;20045;-39
2023/10/15 08:54:11;;;;;;;0.30;0.20;;;20.50;71.40;;;;;;5103623;28;20054;-39
2023/10/15 08:56:37;;;;;;;0.28;0.10;;;20.50;71.40;;;;;;5096383;28;20058;-39
2023/10/15 08:59:24;;;;;;;0.22;0.22;;;20.60;71.70;;;;;;5082457;28;20168;-38
2023/10/15 09:01:53;;;;;;;0.30;0.20;;;20.60;71.70;;;;;;5082124;28;20036;-38
2023/10/15 09:04:19;;;;;;;0.10;0.10;;;20.60;71.50;;;;;;5082993;28;20058;-38
2023/10/15 09:06:47;;;;;;;0.10;0.10;;;20.60;71.40;;;;;;5083389;28;20062;-39
2023/10/15 09:09:14;;;;;;;0.20;0.20;;;20.60;71.30;;;;;;5082068;28;20111;-39
2023/10/15 09:11:42;;;;;;;0.20;0.20;;;20.60;71.30;;;;;;5082244;28;20045;-40
2023/10/15 09:14:13;;;;;;;0.45;0.20;;;20.60;71.40;;;;;;5082220;28;20084;-39
2023/10/15 09:16:48;;;;;;;0.55;0.30;;;20.50;71.10;;;;;;5077023;28;20040;-39
2023/10/15 09:19:14;;;;;;;0.20;0.20;;;20.50;71.20;;;;;;5081576;28;20032;-39
2023/10/15 09:21:41;;;;;;;0.30;0.20;;;20.50;71.20;;;;;;5075023;28;20033;-39
2023/10/15 09:24:07;;;;;;;2.08;0.43;;;20.50;71.30;;;;;;5081631;28;20062;-39
2023/10/15 09:26:37;;;;;;;0.20;0.20;;;20.50;71.40;;;;;;5081409;28;20040;-39
2023/10/15 09:29:21;;;;;;;0.25;0.20;;;20.50;71.50;;;;;;5049723;28;20029;-39
2023/10/15 09:31:49;;;;;;;0.45;0.20;;;20.50;71.40;;;;;;5059328;28;20032;-39
2023/10/15 09:34:15;;;;;;;0.20;0.20;;;20.50;71.20;;;;;;5064650;28;20020;-39
2023/10/15 09:36:41;;;;;;;0.20;0.20;;;20.50;71.20;;;;;;5082992;28;20047;-39
2023/10/15 09:39:13;;;;;;;0.20;0.20;;;20.50;71.20;;;;;;5101517;28;20024;-39
2023/10/15 09:41:43;;;;;;;1.52;0.20;;;20.50;71.20;;;;;;5101705;28;20115;-39
2023/10/15 09:44:15;;;;;;;0.20;0.20;;;20.40;71.20;;;;;;5101288;28;20028;-39
2023/10/15 09:46:46;;;;;;;0.82;0.30;;;20.40;71.10;;;;;;5095371;28;20024;-39
2023/10/15 09:49:12;;;;;;;0.20;0.20;;;20.40;71.10;;;;;;5099283;28;20131;-39
2023/10/15 09:51:42;;;;;;;0.25;0.20;;;20.40;71.10;;;;;;5088685;28;20040;-39
2023/10/15 09:54:11;;;;;;;0.22;0.22;;;20.40;71.20;;;;;;5093179;28;20055;-39
2023/10/15 09:56:45;;;;;;;0.30;0.30;;;20.40;71.10;;;;;;5101772;28;20020;-39
2023/10/15 09:59:14;;;;;;;0.60;0.17;;;20.40;71.10;;;;;;5099943;28;20024;-39
2023/10/15 10:01:47;;;;;;;0.20;0.20;;;20.30;71.00;;;;;;5097193;28;20024;-39
2023/10/15 10:04:18;;;;;;;0.38;0.20;;;20.30;71.20;;;;;;5092878;28;20090;-40
2023/10/15 10:06:48;;;;;;;0.95;0.20;;;20.30;71.10;;;;;;5094799;28;20444;-40
2023/10/15 10:09:39;;;;;;;0.20;0.20;;;20.30;71.20;;;;;;5100434;28;20088;-39
2023/10/15 10:12:26;;;;;;;0.20;0.20;;;20.30;71.20;;;;;;5093632;28;20035;-39
2023/10/15 10:15:01;;;;;;;0.30;0.30;;;20.30;71.20;;;;;;5090393;28;20028;-39
2023/10/15 10:17:28;;;;;;;0.45;0.20;;;20.30;71.20;;;;;;5088401;28;20032;-40
2023/10/15 10:19:54;;;;;;;0.30;0.20;;;20.20;71.10;;;;;;5090048;28;20421;-40
2023/10/15 10:22:26;;;;;;;0.20;0.20;;;20.20;71.10;;;;;;5088113;28;20031;-40
2023/10/15 10:24:58;;;;;;;0.20;0.20;;;20.20;71.10;;;;;;5087043;28;21966;-40
2023/10/15 10:27:25;;;;;;;0.40;0.30;;;20.20;71.10;;;;;;5090758;28;20024;-40
2023/10/15 10:29:54;;;;;;;1.83;0.20;;;20.20;71.10;;;;;;5084664;28;20467;-40
2023/10/15 10:32:23;;;;;;;0.20;0.20;;;20.10;71.20;;;;;;5092012;28;20048;-40
2023/10/15 10:35:18;;;;;;;0.22;0.20;;;20.20;71.20;;;;;;5098687;28;20038;-40
2023/10/15 10:38:17;;;;;;;0.30;0.20;;;20.10;71.10;;;;;;5090491;28;20028;-40
2023/10/15 10:40:53;;;;;;;0.22;0.10;;;20.10;71.20;;;;;;5078048;28;20037;-39
2023/10/15 10:43:26;;;;;;;0.20;0.20;;;20.10;71.20;;;;;;5090291;28;20028;-39
2023/10/15 10:45:53;;;;;;;0.20;0.20;;;20.00;71.10;;;;;;5085735;28;20032;-39
2023/10/15 10:48:27;;;;;;;0.30;0.30;;;20.10;71.10;;;;;;5096209;28;20029;-39
2023/10/15 10:51:08;;;;;;;0.45;0.20;;;20.00;71.10;;;;;;5088064;28;20115;-39
2023/10/15 10:53:35;;;;;;;0.20;0.20;;;20.00;71.10;;;;;;5091562;28;20028;-40
2023/10/15 10:56:04;;;;;;;0.20;0.20;;;20.00;71.10;;;;;;5101737;28;20028;-40
2023/10/15 10:58:31;;;;;;;0.22;0.20;;;20.00;71.10;;;;;;5087602;28;20284;-39
2023/10/15 11:00:57;;;;;;;0.20;0.20;;;20.00;71.10;;;;;;5100775;28;20032;-39
2023/10/15 11:03:23;;;;;;;0.30;0.22;;;20.00;71.20;;;;;;5100368;28;20028;-39
2023/10/15 11:05:50;;;;;;;0.20;0.20;;;20.00;71.30;;;;;;5103636;28;20027;-40
2023/10/15 11:08:19;;;;;;;0.65;0.32;;;20.00;71.20;;;;;;5090482;28;20028;-40
2023/10/15 11:10:45;;;;;;;0.40;0.30;;;19.90;71.20;;;;;;5091298;28;20065;-39
2023/10/15 11:13:12;;;;;;;0.75;0.20;;;19.90;71.10;;;;;;5083447;28;20028;-40
2023/10/15 11:15:38;;;;;;;0.20;0.20;;;19.90;71.50;;;;;;5089230;28;20048;-38
2023/10/15 11:18:08;;;;;;;0.30;0.13;;;20.00;71.80;;;;;;5097913;28;20044;-40
2023/10/15 11:20:35;;;;;;;0.20;0.20;;;20.00;71.70;;;;;;5101526;28;20043;-39
2023/10/15 11:23:08;;;;;;;0.10;0.10;;;20.00;71.60;;;;;;5090874;28;20028;-39
2023/10/15 11:25:34;;;;;;;0.10;0.10;;;20.00;71.60;;;;;;5092517;28;20032;-40
2023/10/15 11:28:10;;;;;;;0.20;0.20;;;20.00;71.50;;;;;;5093431;28;20029;-40
2023/10/15 11:30:41;;;;;;;0.20;0.20;;;20.00;71.60;;;;;;5084475;28;20469;-40
2023/10/15 11:33:09;;;;;;;0.20;0.20;;;19.90;71.60;;;;;;5091427;28;20044;-39
2023/10/15 11:35:36;;;;;;;0.40;0.30;;;19.90;71.60;;;;;;5101498;28;20535;-40
2023/10/15 11:38:09;;;;;;;0.20;0.20;;;19.90;71.60;;;;;;5084133;28;20036;-39
2023/10/15 11:40:39;;;;;;;0.20;0.20;;;19.90;71.70;;;;;;5101203;28;20036;-39
2023/10/15 11:43:18;;;;;;;0.17;0.17;;;19.90;71.60;;;;;;5100219;28;20031;-39
2023/10/15 11:45:47;;;;;;;0.10;0.10;;;19.90;72.00;;;;;;5096078;28;20024;-39
2023/10/15 11:48:13;;;;;;;0.20;0.20;;;20.00;72.30;;;;;;5098307;28;20020;-39
2023/10/15 11:50:40;;;;;;;0.30;0.20;;;20.00;72.10;;;;;;5094776;28;20051;-39
2023/10/15 11:53:19;;;;;;;;;;;20.00;72.00;;;;;;5099204;28;20040;-40
2023/10/15 11:55:52;;;;;;;0.30;0.30;;;20.00;71.90;;;;;;5096689;28;19915;-40
2023/10/15 11:58:23;;;;;;;0.55;0.30;;;20.00;71.90;;;;;;5083507;28;20035;-40
2023/10/15 12:00:52;;;;;;;0.20;0.20;;;20.00;71.90;;;;;;5085509;28;20029;-40
2023/10/15 12:03:20;;;;;;;0.47;0.30;;;19.90;71.90;;;;;;5089756;28;20105;-40
2023/10/15 12:05:52;;;;;;;0.40;0.20;;;19.90;71.90;;;;;;5099049;28;20032;-40
2023/10/15 12:08:21;;;;;;;0.35;0.20;;;19.90;71.90;;;;;;5099042;28;20032;-40
2023/10/15 12:10:48;;;;;;;0.17;0.10;;;19.90;72.10;;;;;;5101217;28;20052;-40
2023/10/15 12:13:17;;;;;;;0.20;0.20;;;20.00;72.50;;;;;;5093206;28;20036;-40
2023/10/15 12:15:43;;;;;;;0.10;0.10;;;20.00;72.40;;;;;;5098527;28;20036;-40
2023/10/15 12:18:09;;;;;;;0.40;0.10;;;20.00;72.20;;;;;;5100839;28;20043;-40
2023/10/15 12:20:36;;;;;;;0.10;0.10;;;20.00;72.10;;;;;;5104510;28;20127;-39
2023/10/15 12:23:03;;;;;;;0.10;0.10;;;20.00;72.10;;;;;;5091451;28;20035;-39
2023/10/15 12:25:29;;;;;;;;;;;19.90;72.00;;;;;;5103775;28;20123;-38
2023/10/15 12:27:55;;;;;;;0.20;0.15;;;19.90;72.00;;;;;;5100085;28;20310;-39
2023/10/15 12:30:27;;;;;;;0.20;0.20;;;19.90;72.10;;;;;;5097301;28;20028;-39
2023/10/15 12:32:59;;;;;;;0.10;0.10;;;19.90;72.20;;;;;;5104181;28;20032;-39
2023/10/15 12:35:27;;;;;;;0.10;0.10;;;20.00;72.50;;;;;;5101196;28;20058;-40
2023/10/15 12:38:02;;;;;;;0.10;0.10;;;20.00;72.60;;;;;;5094035;28;20499;-40
2023/10/15 12:40:32;;;;;;;0.10;0.10;;;20.10;72.30;;;;;;5090235;28;20020;-39
2023/10/15 12:43:08;;;;;;;0.22;0.17;;;20.00;72.20;;;;;;5100387;28;20031;-39
2023/10/15 12:45:37;;;;;;;1.40;0.20;;;20.00;72.20;;;;;;5098035;28;20047;-39
2023/10/15 12:48:05;;;;;;;0.20;0.20;;;20.00;72.20;;;;;;5101756;28;20036;-40
2023/10/15 12:50:31;;;;;;;0.10;0.10;;;19.90;72.10;;;;;;5100673;28;20035;-39
2023/10/15 12:53:00;;;;;;;0.38;0.13;;;19.90;72.00;;;;;;5102210;28;20036;-39
2023/10/15 12:55:26;;;;;;;0.20;0.20;;;19.90;72.10;;;;;;5097324;28;20104;-39
2023/10/15 12:57:53;;;;;;;0.10;0.10;;;19.90;72.20;;;;;;5091738;28;20032;-39
2023/10/15 13:00:21;;;;;;;0.10;0.10;;;20.00;72.60;;;;;;5096016;28;20036;-39
2023/10/15 13:02:51;;;;;;;0.10;0.10;;;20.10;72.60;;;;;;5104115;28;20280;-39
2023/10/15 13:05:24;;;;;;;0.17;0.10;;;20.00;72.30;;;;;;5107081;28;20029;-39
2023/10/15 13:07:51;;;;;;;0.10;0.10;;;20.00;72.20;;;;;;5095448;28;20028;-39
2023/10/15 13:10:18;;;;;;;;;;;20.00;72.20;;;;;;5097407;28;20093;-39
2023/10/15 13:12:44;;;;;;;0.15;0.15;;;20.00;72.10;;;;;;5094549;28;19919;-39